Hankey, South Africa

10:21 PM SAST on May 28, 2017 (GMT +0200)
Wavecrest | | Change Station

Elev 236 ft 34.03 °S, 24.92 °E | Updated 1 second ago

Clear
Clear
67.6 °F
Feels Like 67.6 °F
N
3.4
Wind Variable Wind from NW
Gusts 4.9 mph

Today
High -- | Low -- °F
--% Chance of Precip.
Yesterday
High -- | Low -- °F
Precip. -- in
Pressure 30.45 in
Visibility -9999.0 miles
Clouds
Dew Point 61 °F
Humidity 79%
Rainfall 0.00 in
Snow Depth Not available.
7:14 AM 5:20 PM
Waxing Crescent, 13% visible
METAR FAPE 282000Z 26009KT CAVOK 15/13 Q1031 NOSIG
Pressure 30.45 in
Visibility -9999.0 miles
Clouds
Dew Point 61 °F
Humidity 79%
Rainfall 0.00 in
Snow Depth Not available.
7:14 AM 5:20 PM
Waxing Crescent, 13% visible
METAR FAPE 282000Z 26009KT CAVOK 15/13 Q1031 NOSIG

Get Severe Weather Alerts

Thanks for signing up!

Be on the lookout for a verification email in your inbox.

You'll start receiving the daily forecast at 6 AM.

×

10-Day Weather Forecast

No radar image for this location.
×

Almanac

Astronomy

May. 28, 2017 Rise Set
Actual Time
Civil Twilight
Nautical Twilight
Astronomical Twilight
Moon
Length of Visible Light
Length of Day
Tomorrow will be .
, % of the Moon is Illuminated

Today's Extremes

Country Highs Country Lows

Community

WunderPhotos

Category 6

Welcome to Category 6. This is the collective home for Weather Underground's featured writeups by Dr. Jeff Masters (right), Bob Henson (left), Chris Burt, and other regular contributors.

Nearby

Air Quality

  Air Quality AQ Index Pollutant
Not available.

Snow Depth

Station Depth Elevation

Earthquake Activity

City Distance Mag. Time & Date
Minimum magnitude displayed is 2.5.

Coastal Water Temperatures

Place Temperature

Stations

Nearby Weather Stations

Station Location Temp. Windchill Dew Point Humidity Wind Precip. Elev Updated Type